CST,Max TemperatureF,Mean TemperatureF,Min TemperatureF,Max Dew PointF,MeanDew PointF,Min DewpointF,Max Humidity, Mean Humidity, Min Humidity, Max Sea Level PressureIn, Mean Sea Level PressureIn, Min Sea Level PressureIn, Max VisibilityMiles, Mean VisibilityMiles, Min VisibilityMiles, Max Wind SpeedMPH, Mean Wind SpeedMPH, Max Gust SpeedMPH,PrecipitationIn, CloudCover, Events, WindDirDegrees
2012-12-1,65,54,43,49,45,39,82,68,54,30.25,30.18,30.12,10,10,10,13,9,,0.00,3,,170
2012-12-2,64,60,57,60,57,50,87,80,72,30.14,30.11,30.08,10,9,7,20,14,25,0.01,7,Rain,201
2012-12-3,74,66,59,60,56,51,90,72,55,30.15,30.10,30.05,10,10,10,18,11,25,0.00,4,,191
2012-12-4,66,56,41,61,55,42,100,88,70,30.28,30.11,30.05,10,7,2,18,11,28,0.33,6,Rain-Thunderstorm,289
2012-12-5,56,45,34,46,38,35,100,85,46,30.37,30.30,30.19,10,6,0,9,2,,0.00,0,Fog,48
2012-12-6,52,44,36,52,43,33,100,85,69,30.18,30.06,29.98,10,8,2,10,7,,0.02,6,Rain,133
2012-12-7,59,55,51,58,55,51,100,99,93,29.98,29.92,29.86,8,4,1,14,6,,0.38,7,Rain,172
2012-12-8,57,54,50,58,53,46,100,95,83,29.99,29.92,29.86,10,4,1,10,6,,0.18,7,Rain,233
2012-12-9,64,57,50,63,56,50,100,95,87,29.97,29.84,29.74,10,6,2,17,8,,0.79,6,Rain-Thunderstorm,171
2012-12-10,51,42,32,50,35,25,97,84,73,30.07,29.88,29.79,10,9,5,17,13,24,0.00,8,,325
2012-12-11,39,34,29,28,25,21,88,69,53,30.30,30.18,30.08,10,10,10,9,6,,0.00,3,,250
2012-12-12,46,36,25,31,26,23,92,75,44,30.42,30.36,30.30,10,10,8,7,1,,0.00,0,,150
2012-12-13,50,38,26,33,27,23,92,72,43,30.44,30.37,30.30,10,10,9,7,2,,0.00,0,,173
2012-12-14,54,42,30,37,31,24,79,61,42,30.34,30.24,30.12,10,10,10,10,5,,0.00,0,,164
2012-12-15,57,51,45,55,48,37,94,85,68,30.10,29.90,29.79,10,9,3,20,11,25,0.07,6,Rain,175
2012-12-16,61,56,50,58,54,50,100,92,72,29.78,29.75,29.69,10,10,6,13,8,,0.00,3,,201
2012-12-17,60,50,41,57,49,39,100,93,72,29.79,29.69,29.57,10,7,2,20,8,,0.00,7,Rain-Thunderstorm,255
2012-12-18,54,46,39,39,37,34,87,73,51,29.92,29.86,29.78,10,10,8,17,11,21,0.00,3,,225
2012-12-19,57,47,37,47,40,34,93,74,55,30.04,29.95,29.75,10,10,7,17,7,,0.00,1,,102
2012-12-20,59,45,31,54,40,26,100,76,55,29.84,29.58,29.38,10,8,2,39,22,48,0.32,7,Rain-Snow,218
2012-12-21,38,33,28,24,21,18,73,62,47,30.28,30.08,29.86,10,10,10,25,20,38,0.00,2,,295
2012-12-22,41,30,20,23,20,16,85,63,45,30.36,30.24,30.06,10,10,10,10,5,,0.00,0,,189
2012-12-23,55,44,32,46,36,22,100,73,49,30.05,29.95,29.86,10,9,2,9,7,,0.00,3,,179
2012-12-24,50,42,34,50,43,28,100,95,76,30.09,29.88,29.78,10,3,0,20,6,,0.00,8,Fog-Rain,285
2012-12-25,37,34,32,34,30,28,97,81,68,30.18,30.03,29.75,10,6,2,22,11,,0.07,8,Rain-Snow,46
2012-12-26,35,34,32,34,31,28,100,92,81,30.10,29.75,29.54,10,5,1,24,17,34,0.39,8,Rain-Snow,357
2012-12-27,32,31,30,29,28,27,93,86,79,30.22,30.17,30.11,10,10,7,12,7,,0.00,8,,312
2012-12-28,39,35,31,36,32,28,100,89,73,30.13,29.96,29.78,10,7,1,9,6,,0.14,7,Rain-Snow,92
2012-12-29,33,30,24,34,29,21,100,90,74,30.38,30.04,29.78,10,6,2,17,10,,0.04,8,Snow,308
2012-12-30,34,26,19,28,24,17,96,84,68,30.54,30.45,30.34,10,8,3,9,5,,0.00,0,,201
2012-12-31,38,34,31,36,32,27,100,87,76,30.33,30.21,30.08,10,8,2,9,7,,0.10,5,Rain,183